createdAt,value
2019-03-26T00:00:57.247Z,101452.48
2019-03-26T00:03:28.356Z,101454.30
2019-03-26T00:05:59.915Z,101462.70
2019-03-26T00:08:31.160Z,101472.06
2019-03-26T00:11:02.628Z,101472.06
2019-03-26T00:13:33.393Z,101469.08
2019-03-26T00:16:04.359Z,101465.93
2019-03-26T00:18:35.219Z,101473.52
2019-03-26T00:21:06.350Z,101481.55
2019-03-26T00:23:37.117Z,101485.95
2019-03-26T00:26:08.105Z,101498.22
2019-03-26T00:28:38.842Z,101497.44
2019-03-26T00:31:09.707Z,101498.02
2019-03-26T00:33:40.733Z,101485.70
2019-03-26T00:36:11.497Z,101498.63
2019-03-26T00:38:42.366Z,101497.85
2019-03-26T00:41:13.386Z,101500.81
2019-03-26T00:43:44.307Z,101501.31
2019-03-26T00:46:15.130Z,101499.13
2019-03-26T00:48:46.432Z,101517.67
2019-03-26T00:51:17.395Z,101515.40
2019-03-26T00:53:49.467Z,101516.13
2019-03-26T00:56:20.476Z,101519.98
2019-03-26T00:58:51.028Z,101535.56
2019-03-26T01:01:21.685Z,101535.36
2019-03-26T01:03:54.880Z,101535.05
2019-03-26T01:06:25.348Z,101540.91
2019-03-26T01:08:56.000Z,101541.22
2019-03-26T01:11:27.049Z,101547.50
2019-03-26T01:13:58.105Z,101549.69
2019-03-26T01:16:29.331Z,101554.06
2019-03-26T01:19:00.081Z,101554.06
2019-03-26T01:21:30.836Z,101536.03
2019-03-26T01:24:01.690Z,101558.52
2019-03-26T01:26:32.785Z,101559.71
2019-03-26T01:29:04.164Z,101556.84
2019-03-26T01:31:35.401Z,101556.36
2019-03-26T01:34:07.011Z,101557.35
2019-03-26T01:36:37.625Z,101557.34
2019-03-26T01:39:08.401Z,101555.76
2019-03-26T01:41:39.309Z,101556.02
2019-03-26T01:44:10.888Z,101551.59
2019-03-26T01:46:41.589Z,101548.73
2019-03-26T01:49:12.385Z,101557.13
2019-03-26T01:51:43.304Z,101553.19
2019-03-26T01:54:14.270Z,101546.16
2019-03-26T01:56:45.683Z,101544.27
2019-03-26T01:59:16.484Z,101524.41
2019-03-26T02:01:47.461Z,101549.32
2019-03-26T02:04:18.298Z,101562.86
2019-03-26T02:06:49.506Z,101552.63
2019-03-26T02:09:20.138Z,101538.97
2019-03-26T02:11:50.866Z,101543.02
2019-03-26T02:14:21.863Z,101543.02
2019-03-26T02:16:52.807Z,101540.33
2019-03-26T02:19:23.605Z,101551.57
2019-03-26T02:21:54.583Z,101555.22
2019-03-26T02:24:25.427Z,101547.52
2019-03-26T02:26:56.254Z,101547.39
2019-03-26T02:29:26.987Z,101550.85
2019-03-26T02:31:58.234Z,101549.31
2019-03-26T02:34:28.939Z,101542.25
2019-03-26T02:37:00.130Z,101552.64
2019-03-26T02:39:31.405Z,101555.22
2019-03-26T02:42:02.320Z,101558.42
2019-03-26T02:44:33.127Z,101560.65
2019-03-26T02:47:04.022Z,101553.84
2019-03-26T02:49:35.024Z,101543.39
2019-03-26T02:52:05.794Z,101548.95
2019-03-26T02:54:36.202Z,101545.48
2019-03-26T02:57:07.107Z,101530.06
2019-03-26T02:59:38.406Z,101523.73
2019-03-26T03:02:09.068Z,101533.80
2019-03-26T03:04:40.018Z,101528.58
2019-03-26T03:07:10.690Z,101527.78
2019-03-26T03:09:41.642Z,101533.81
2019-03-26T03:12:12.688Z,101524.72
2019-03-26T03:14:43.807Z,101526.58
2019-03-26T03:17:14.725Z,101518.00
2019-03-26T03:19:45.687Z,101518.52
2019-03-26T03:22:16.435Z,101515.43
2019-03-26T03:24:46.858Z,101515.34
2019-03-26T03:27:17.543Z,101523.23
2019-03-26T03:29:48.349Z,101521.95
2019-03-26T03:32:19.189Z,101534.64
2019-03-26T03:34:49.983Z,101529.70
2019-03-26T03:37:20.994Z,101523.66
2019-03-26T03:39:52.854Z,101529.77
2019-03-26T03:42:23.751Z,101529.38
2019-03-26T03:44:54.349Z,101516.69
2019-03-26T03:47:27.346Z,101523.44
2019-03-26T03:49:58.236Z,101530.48
2019-03-26T03:52:30.547Z,101528.09
2019-03-26T03:55:01.408Z,101530.17
2019-03-26T03:57:32.683Z,101536.13
2019-03-26T04:00:03.548Z,101540.84
2019-03-26T04:02:34.963Z,101542.14
2019-03-26T04:05:06.682Z,101537.17
2019-03-26T04:07:37.645Z,101541.42
2019-03-26T04:10:08.727Z,101545.35
2019-03-26T04:12:39.739Z,101545.09
2019-03-26T04:15:11.113Z,101544.77
2019-03-26T04:17:41.787Z,101543.48
2019-03-26T04:20:12.492Z,101556.02
2019-03-26T04:22:43.644Z,101554.14
2019-03-26T04:25:14.924Z,101552.56
2019-03-26T04:27:45.841Z,101553.47
2019-03-26T04:30:20.658Z,101539.00
2019-03-26T04:32:51.724Z,101548.23
2019-03-26T04:35:23.424Z,101545.75
2019-03-26T04:37:54.374Z,101542.70
2019-03-26T04:40:25.120Z,101522.52
2019-03-26T04:42:56.335Z,101537.27
2019-03-26T04:45:27.134Z,101537.27
2019-03-26T04:47:58.388Z,101537.05
2019-03-26T04:50:29.577Z,101533.15
2019-03-26T04:53:00.396Z,101535.72
2019-03-26T04:55:31.183Z,101537.46
2019-03-26T04:58:02.281Z,101531.63
2019-03-26T05:00:33.751Z,101521.86
2019-03-26T05:03:04.562Z,101522.66
2019-03-26T05:05:35.579Z,101526.97
2019-03-26T05:08:06.341Z,101515.41
2019-03-26T05:10:37.121Z,101509.02
2019-03-26T05:13:08.428Z,101519.20
2019-03-26T05:15:39.277Z,101518.37
2019-03-26T05:18:10.962Z,101519.94
2019-03-26T05:20:41.723Z,101516.40
2019-03-26T05:23:12.706Z,101523.34
2019-03-26T05:25:43.371Z,101519.48
2019-03-26T05:28:14.380Z,101516.42
2019-03-26T05:31:02.427Z,101520.22
2019-03-26T05:33:33.107Z,101510.28
2019-03-26T05:36:03.981Z,101507.59
2019-03-26T05:38:34.966Z,101509.95
2019-03-26T05:41:05.797Z,101501.23
2019-03-26T05:43:37.041Z,101502.14
2019-03-26T05:46:07.990Z,101504.33
2019-03-26T05:48:38.785Z,101509.02
2019-03-26T05:51:10.705Z,101515.27
2019-03-26T05:53:41.858Z,101507.81
2019-03-26T05:56:13.203Z,101508.44
2019-03-26T05:58:44.108Z,101507.16
2019-03-26T06:01:16.257Z,101508.16
2019-03-26T06:03:47.919Z,101500.62
2019-03-26T06:06:21.062Z,101504.45
2019-03-26T06:08:52.001Z,101498.16
2019-03-26T06:11:24.008Z,101497.05
2019-03-26T06:13:55.401Z,101489.88
2019-03-26T06:16:37.827Z,101498.78
2019-03-26T06:18:59.148Z,101503.48
2019-03-26T06:21:30.152Z,101486.52
2019-03-26T06:24:01.576Z,101484.12
2019-03-26T06:26:32.544Z,101482.06
2019-03-26T06:29:03.419Z,101478.91
2019-03-26T06:31:34.944Z,101478.91
2019-03-26T06:34:06.279Z,101472.20
2019-03-26T06:36:36.826Z,101473.09
2019-03-26T06:39:09.270Z,101464.36
2019-03-26T06:41:40.560Z,101459.17
2019-03-26T06:44:11.600Z,101453.00
2019-03-26T06:46:42.559Z,101454.02
2019-03-26T06:49:13.351Z,101463.42
2019-03-26T06:51:44.164Z,101460.27
2019-03-26T06:54:15.009Z,101460.66
2019-03-26T06:56:46.043Z,101462.38
2019-03-26T06:59:17.363Z,101458.55
2019-03-26T07:01:48.482Z,101449.66
2019-03-26T07:04:20.121Z,101447.23
2019-03-26T07:06:51.323Z,101439.03
2019-03-26T07:09:22.554Z,101440.19
2019-03-26T07:11:53.364Z,101439.80
2019-03-26T07:14:24.683Z,101436.32
2019-03-26T07:16:55.444Z,101429.39
2019-03-26T07:19:26.195Z,101436.51
2019-03-26T07:21:57.152Z,101434.45
2019-03-26T07:24:27.783Z,101429.04
2019-03-26T07:26:58.764Z,101420.02
2019-03-26T07:29:29.497Z,101428.42
2019-03-26T07:32:00.448Z,101425.56
2019-03-26T07:34:32.087Z,101427.38
2019-03-26T07:37:04.061Z,101428.16
2019-03-26T07:39:35.044Z,101422.72
2019-03-26T07:42:06.390Z,101406.75
2019-03-26T07:44:37.452Z,101402.22
2019-03-26T07:47:08.403Z,101405.59
2019-03-26T07:49:39.964Z,101397.98
2019-03-26T07:52:11.610Z,101389.33
2019-03-26T07:54:43.731Z,101388.28
2019-03-26T07:57:14.878Z,101386.05
2019-03-26T07:59:46.372Z,101386.43
2019-03-26T08:02:18.202Z,101391.20
2019-03-26T08:04:49.723Z,101385.39
2019-03-26T08:07:20.819Z,101378.16
2019-03-26T08:09:51.887Z,101372.48
2019-03-26T08:12:22.923Z,101370.66
2019-03-26T08:14:54.963Z,101369.23
2019-03-26T08:17:26.536Z,101369.48
2019-03-26T08:19:57.763Z,101368.98
2019-03-26T08:22:28.603Z,101376.08
2019-03-26T08:25:00.049Z,101371.67
2019-03-26T08:27:31.084Z,101375.05
2019-03-26T08:30:03.045Z,101374.29
2019-03-26T08:32:36.944Z,101378.27
2019-03-26T08:35:07.684Z,101373.64
2019-03-26T08:37:38.845Z,101376.22
2019-03-26T08:40:09.429Z,101375.80
2019-03-26T08:42:40.483Z,101364.46
2019-03-26T08:45:11.525Z,101376.05
2019-03-26T08:47:42.803Z,101371.13
2019-03-26T08:50:14.644Z,101362.49
2019-03-26T08:52:45.485Z,101375.40
2019-03-26T08:55:16.566Z,101383.39
2019-03-26T08:57:47.445Z,101374.72
2019-03-26T09:00:19.125Z,101379.48
2019-03-26T09:02:50.603Z,101376.90
2019-03-26T09:05:21.726Z,101382.86
2019-03-26T09:07:52.591Z,101394.88
2019-03-26T09:10:24.679Z,101405.09
2019-03-26T09:12:55.657Z,101397.84
2019-03-26T09:15:27.188Z,101417.91
2019-03-26T09:17:58.388Z,101417.16
2019-03-26T09:20:30.563Z,101432.64
2019-03-26T09:23:01.843Z,101432.40
2019-03-26T09:25:34.307Z,101427.38
2019-03-26T09:28:05.866Z,101426.71
2019-03-26T09:30:38.058Z,101445.82
2019-03-26T09:33:09.299Z,101436.66
2019-03-26T09:35:40.904Z,101443.11
2019-03-26T09:38:12.097Z,101452.52
2019-03-26T09:40:43.154Z,101450.72
2019-03-26T09:43:13.841Z,101439.35
2019-03-26T09:45:44.215Z,101446.08
2019-03-26T09:48:14.627Z,101434.34
2019-03-26T09:50:45.079Z,101432.80
2019-03-26T09:53:15.447Z,101429.16
2019-03-26T09:55:46.089Z,101422.73
2019-03-26T09:58:16.692Z,101421.94
2019-03-26T10:00:47.243Z,101409.42
2019-03-26T10:03:17.769Z,101411.59
2019-03-26T10:05:48.251Z,101410.93
2019-03-26T10:08:18.690Z,101409.36
2019-03-26T10:10:50.085Z,101399.82
2019-03-26T10:13:20.552Z,101398.34
2019-03-26T10:15:50.973Z,101398.56
2019-03-26T10:18:21.402Z,101397.77
2019-03-26T10:20:51.954Z,101403.03
2019-03-26T10:23:22.436Z,101401.50
2019-03-26T10:25:52.855Z,101403.97
2019-03-26T10:28:23.212Z,101390.27
2019-03-26T10:30:54.636Z,101393.94
2019-03-26T10:33:26.068Z,101403.62
2019-03-26T10:35:56.526Z,101393.78
2019-03-26T10:38:27.113Z,101398.66
2019-03-26T10:40:57.587Z,101386.78
2019-03-26T10:43:27.942Z,101386.14
2019-03-26T10:45:58.365Z,101372.03
2019-03-26T10:48:31.807Z,101370.19
2019-03-26T10:51:00.847Z,101369.49
2019-03-26T10:53:31.213Z,101377.84
2019-03-26T10:56:01.602Z,101362.25
2019-03-26T10:58:32.238Z,101361.31
2019-03-26T11:01:02.716Z,101358.38
2019-03-26T11:03:33.516Z,101342.94
2019-03-26T11:06:04.028Z,101340.72
2019-03-26T11:08:34.624Z,101352.63
2019-03-26T11:11:05.618Z,101357.22
2019-03-26T11:13:36.583Z,101345.34
2019-03-26T11:16:06.981Z,101346.03
2019-03-26T11:18:37.443Z,101333.45
2019-03-26T11:21:07.914Z,101330.69
2019-03-26T11:23:38.421Z,101327.45
2019-03-26T11:26:08.973Z,101317.14
2019-03-26T11:28:39.363Z,101311.88
2019-03-26T11:31:09.771Z,101342.25
2019-03-26T11:33:40.317Z,101333.04
2019-03-26T11:36:10.762Z,101308.22
2019-03-26T11:38:41.255Z,101307.46
2019-03-26T11:41:11.648Z,101302.95
2019-03-26T11:43:42.405Z,101306.70
2019-03-26T11:46:12.826Z,101307.02
2019-03-26T11:48:43.326Z,101302.09
2019-03-26T11:51:13.854Z,101312.69
2019-03-26T11:53:44.316Z,101299.78
2019-03-26T11:56:14.774Z,101318.09
2019-03-26T11:58:45.210Z,101310.41
2019-03-26T12:01:15.621Z,101304.41
2019-03-26T12:03:46.050Z,101299.05
2019-03-26T12:06:16.515Z,101298.49
2019-03-26T12:08:46.992Z,101291.77
2019-03-26T12:11:17.458Z,101282.41
2019-03-26T12:13:47.834Z,101278.00
2019-03-26T12:16:18.321Z,101283.11
2019-03-26T12:18:48.909Z,101289.39
2019-03-26T12:21:19.892Z,101278.52
2019-03-26T12:23:50.361Z,101291.64
2019-03-26T12:26:20.771Z,101275.41
2019-03-26T12:28:51.219Z,101281.27
2019-03-26T12:31:21.656Z,101275.72
2019-03-26T12:33:52.105Z,101269.38
2019-03-26T12:36:22.804Z,101281.56
2019-03-26T12:38:53.223Z,101277.95
2019-03-26T12:41:23.620Z,101270.48
2019-03-26T12:43:54.168Z,101273.03
2019-03-26T12:46:24.915Z,101273.50
2019-03-26T12:48:56.374Z,101281.13
2019-03-26T12:51:26.784Z,101274.08
2019-03-26T12:53:57.131Z,101286.18
2019-03-26T12:56:27.936Z,101272.02
2019-03-26T12:58:58.635Z,101296.77
2019-03-26T13:01:29.239Z,101282.16
2019-03-26T13:04:12.058Z,101273.73
2019-03-26T13:06:32.413Z,101259.88
2019-03-26T13:09:03.284Z,101273.84
2019-03-26T13:11:33.692Z,101259.47
2019-03-26T13:14:04.143Z,101269.28
2019-03-26T13:16:35.259Z,101271.42
2019-03-26T13:19:06.062Z,101266.67
2019-03-26T13:21:37.657Z,101255.50
2019-03-26T13:24:11.310Z,101249.81
2019-03-26T13:26:40.905Z,101258.19
2019-03-26T13:29:11.534Z,101257.17
2019-03-26T13:31:42.048Z,101259.92
2019-03-26T13:34:12.973Z,101259.16
2019-03-26T13:36:43.916Z,101258.19
2019-03-26T13:39:14.374Z,101260.20
2019-03-26T13:41:45.532Z,101268.70
2019-03-26T13:44:16.215Z,101263.23
2019-03-26T13:46:47.717Z,101272.27
2019-03-26T13:49:18.326Z,101270.81
2019-03-26T13:51:49.002Z,101269.98
2019-03-26T13:54:19.381Z,101272.02
2019-03-26T13:56:49.779Z,101275.38
2019-03-26T13:59:20.234Z,101273.69
2019-03-26T14:01:54.228Z,101269.48
2019-03-26T14:04:25.147Z,101269.70
2019-03-26T14:06:55.546Z,101275.78
2019-03-26T14:09:26.111Z,101272.82
2019-03-26T14:11:57.782Z,101276.05
2019-03-26T14:14:28.406Z,101278.63
2019-03-26T14:16:59.135Z,101276.09
2019-03-26T14:19:29.582Z,101276.77
2019-03-26T14:22:00.066Z,101271.98
2019-03-26T14:24:30.648Z,101277.54
2019-03-26T14:27:01.101Z,101278.96
2019-03-26T14:29:31.539Z,101281.55
2019-03-26T14:32:01.961Z,101287.14
2019-03-26T14:34:32.467Z,101285.34
2019-03-26T14:37:02.941Z,101283.56
2019-03-26T14:39:33.345Z,101293.34
2019-03-26T14:42:29.191Z,101292.32
2019-03-26T14:45:01.275Z,101287.75
2019-03-26T14:47:32.176Z,101306.33
2019-03-26T14:50:02.826Z,101301.95
2019-03-26T14:52:33.895Z,101301.43
2019-03-26T14:55:06.320Z,101297.67
2019-03-26T14:57:36.729Z,101298.16
2019-03-26T15:00:07.547Z,101297.71
2019-03-26T15:02:39.734Z,101291.85
2019-03-26T15:05:13.757Z,101305.52
2019-03-26T15:07:44.817Z,101301.91
2019-03-26T15:10:17.766Z,101301.81
2019-03-26T15:12:48.386Z,101308.84
2019-03-26T15:15:18.847Z,101308.84
2019-03-26T15:17:49.358Z,101312.38
2019-03-26T15:20:19.878Z,101312.55
2019-03-26T15:22:50.283Z,101321.08
2019-03-26T15:25:20.715Z,101333.08
2019-03-26T15:27:52.140Z,101340.29
2019-03-26T15:30:24.194Z,101329.14
2019-03-26T15:32:55.155Z,101323.55
2019-03-26T15:35:26.698Z,101326.48
2019-03-26T15:37:58.694Z,101333.16
2019-03-26T15:40:30.984Z,101339.78
2019-03-26T15:43:02.034Z,101340.70
2019-03-26T15:45:32.613Z,101338.25
2019-03-26T15:48:03.213Z,101338.03
2019-03-26T15:50:36.455Z,101344.58
2019-03-26T15:53:06.846Z,101343.69
2019-03-26T15:55:37.355Z,101353.05
2019-03-26T15:58:07.873Z,101348.17
2019-03-26T16:00:38.358Z,101359.50
2019-03-26T16:03:08.807Z,101365.41
2019-03-26T16:05:40.696Z,101369.36
2019-03-26T16:08:11.232Z,101374.30
2019-03-26T16:10:41.708Z,101381.21
2019-03-26T16:13:12.351Z,101377.17
2019-03-26T16:15:44.856Z,101382.08
2019-03-26T16:18:14.957Z,101392.27
2019-03-26T16:20:45.487Z,101398.08
2019-03-26T16:23:15.886Z,101391.94
2019-03-26T16:25:46.353Z,101397.05
2019-03-26T16:28:16.994Z,101389.68
2019-03-26T16:30:47.464Z,101389.02
2019-03-26T16:33:17.884Z,101395.65
2019-03-26T16:35:48.289Z,101399.63
2019-03-26T16:38:18.719Z,101406.50
2019-03-26T16:40:49.219Z,101407.53
2019-03-26T16:43:19.780Z,101409.31
2019-03-26T16:45:50.324Z,101402.19
2019-03-26T16:48:20.728Z,101412.78
2019-03-26T16:50:52.583Z,101425.55
2019-03-26T16:53:23.151Z,101419.72
2019-03-26T16:55:53.532Z,101423.20
2019-03-26T16:58:24.643Z,101428.98
2019-03-26T17:00:55.756Z,101427.19
2019-03-26T17:03:31.566Z,101442.08
2019-03-26T17:06:00.956Z,101445.86
2019-03-26T17:08:31.624Z,101441.10
2019-03-26T17:11:03.237Z,101451.21
2019-03-26T17:13:34.876Z,101452.34
2019-03-26T17:16:06.417Z,101448.62
2019-03-26T17:18:37.915Z,101451.11
2019-03-26T17:21:09.136Z,101457.19
2019-03-26T17:23:43.678Z,101464.05
2019-03-26T17:26:15.600Z,101464.84
2019-03-26T17:28:46.736Z,101464.05
2019-03-26T17:31:17.757Z,101462.75
2019-03-26T17:33:49.357Z,101471.56
2019-03-26T17:36:20.235Z,101472.47
2019-03-26T17:38:51.349Z,101480.07
2019-03-26T17:41:22.980Z,101479.83
2019-03-26T17:43:54.199Z,101480.13
2019-03-26T17:46:25.020Z,101486.30
2019-03-26T17:48:56.994Z,101495.51
2019-03-26T17:51:28.755Z,101497.45
2019-03-26T17:54:00.011Z,101492.68
2019-03-26T17:56:31.195Z,101501.73
2019-03-26T17:59:02.581Z,101504.32
2019-03-26T18:01:33.336Z,101507.15
2019-03-26T18:04:18.158Z,101503.77
2019-03-26T18:06:54.276Z,101510.63
2019-03-26T18:09:25.476Z,101515.30
2019-03-26T18:11:57.069Z,101519.45
2019-03-26T18:14:28.382Z,101519.84
2019-03-26T18:17:03.852Z,101530.59
2019-03-26T18:19:35.454Z,101534.20
2019-03-26T18:22:22.257Z,101529.69
2019-03-26T18:25:05.087Z,101543.36
2019-03-26T18:27:40.599Z,101555.05
2019-03-26T18:30:14.044Z,101552.07
2019-03-26T18:32:44.726Z,101557.35
2019-03-26T18:35:21.486Z,101568.34
2019-03-26T18:37:57.429Z,101585.56
2019-03-26T18:40:30.849Z,101610.83
2019-03-26T18:43:02.917Z,101608.14
2019-03-26T18:45:34.328Z,101609.86
2019-03-26T18:48:10.445Z,101613.91
2019-03-26T18:50:44.246Z,101617.39
2019-03-26T18:53:18.193Z,101618.70
2019-03-26T18:55:53.044Z,101624.91
2019-03-26T18:58:26.982Z,101635.38
2019-03-26T19:01:00.288Z,101642.34
2019-03-26T19:03:32.205Z,101649.19
2019-03-26T19:06:12.526Z,101664.21
2019-03-26T19:08:57.528Z,101667.94
2019-03-26T19:11:34.615Z,101669.37
2019-03-26T19:14:08.182Z,101675.82
2019-03-26T19:16:43.342Z,101686.15
2019-03-26T19:19:21.133Z,101693.39
2019-03-26T19:21:55.797Z,101700.06
2019-03-26T19:24:38.566Z,101701.09
2019-03-26T19:27:16.678Z,101703.67
2019-03-26T19:29:48.399Z,101697.34
2019-03-26T19:32:26.316Z,101707.42
2019-03-26T19:35:16.223Z,101712.98
2019-03-26T19:38:05.791Z,101713.76
2019-03-26T19:40:57.391Z,101716.36
2019-03-26T19:43:40.641Z,101721.41
2019-03-26T19:46:18.942Z,101727.05
2019-03-26T19:48:59.405Z,101729.52
2019-03-26T19:51:32.404Z,101722.55
2019-03-26T19:54:03.495Z,101725.53
2019-03-26T19:56:34.601Z,101732.07
2019-03-26T19:59:05.961Z,101734.44
2019-03-26T20:01:37.479Z,101743.23
2019-03-26T20:04:08.799Z,101742.18
2019-03-26T20:06:43.360Z,101744.89
2019-03-26T20:09:18.480Z,101752.39
2019-03-26T20:11:49.691Z,101755.22
2019-03-26T20:14:22.270Z,101767.23
2019-03-26T20:16:53.713Z,101773.92
2019-03-26T20:19:26.362Z,101781.13
2019-03-26T20:21:57.897Z,101790.92
2019-03-26T20:24:29.437Z,101788.79
2019-03-26T20:27:00.227Z,101789.63
2019-03-26T20:29:31.849Z,101796.75
2019-03-26T20:32:03.554Z,101804.37
2019-03-26T20:34:36.140Z,101809.09
2019-03-26T20:37:08.688Z,101818.38
2019-03-26T20:39:40.889Z,101818.00
2019-03-26T20:42:11.576Z,101820.35
2019-03-26T20:44:42.195Z,101821.41
2019-03-26T20:47:13.747Z,101827.31
2019-03-26T20:49:52.666Z,101827.08
2019-03-26T20:52:31.708Z,101831.36
2019-03-26T20:55:11.328Z,101832.41
2019-03-26T20:57:42.511Z,101834.38
2019-03-26T21:00:19.752Z,101839.84
2019-03-26T21:02:54.388Z,101839.80
2019-03-26T21:05:39.259Z,101845.67
2019-03-26T21:08:22.813Z,101846.97
2019-03-26T21:10:55.505Z,101854.19
2019-03-26T21:13:27.157Z,101861.92
2019-03-26T21:15:59.139Z,101859.77
2019-03-26T21:18:30.256Z,101853.43
2019-03-26T21:21:02.543Z,101856.42
2019-03-26T21:23:33.637Z,101859.67
2019-03-26T21:26:05.264Z,101858.64
2019-03-26T21:28:38.674Z,101860.55
2019-03-26T21:31:09.946Z,101863.25
2019-03-26T21:33:41.951Z,101872.38
2019-03-26T21:36:13.401Z,101871.00
2019-03-26T21:38:44.199Z,101878.63
2019-03-26T21:41:15.400Z,101883.02
2019-03-26T21:43:46.526Z,101888.22
2019-03-26T21:46:17.502Z,101890.39
2019-03-26T21:48:48.211Z,101893.71
2019-03-26T21:51:19.340Z,101889.02
2019-03-26T21:53:50.091Z,101900.52
2019-03-26T21:56:21.235Z,101893.82
2019-03-26T21:58:51.892Z,101893.91
2019-03-26T22:01:23.562Z,101901.14
2019-03-26T22:03:54.327Z,101896.22
2019-03-26T22:06:25.767Z,101901.37
2019-03-26T22:08:57.686Z,101898.28
2019-03-26T22:11:29.821Z,101901.67
2019-03-26T22:14:00.752Z,101898.41
2019-03-26T22:16:32.164Z,101908.02
2019-03-26T22:19:03.318Z,101907.16
2019-03-26T22:21:34.358Z,101913.38
2019-03-26T22:24:05.948Z,101918.36
2019-03-26T22:26:37.550Z,101921.09
2019-03-26T22:29:08.815Z,101922.24
2019-03-26T22:31:40.122Z,101934.17
2019-03-26T22:34:11.300Z,101940.86
2019-03-26T22:36:42.111Z,101941.02
2019-03-26T22:39:13.493Z,101939.03
2019-03-26T22:41:45.085Z,101942.80
2019-03-26T22:44:16.296Z,101947.17
2019-03-26T22:46:47.772Z,101942.18
2019-03-26T22:49:19.317Z,101950.52
2019-03-26T22:51:50.055Z,101957.23
2019-03-26T22:54:21.224Z,101962.89
2019-03-26T22:56:52.201Z,101969.80
2019-03-26T22:59:23.173Z,101968.42
2019-03-26T23:01:54.273Z,101969.91
2019-03-26T23:04:26.193Z,101970.61
2019-03-26T23:06:57.286Z,101972.23
2019-03-26T23:09:28.483Z,101973.21
2019-03-26T23:11:59.638Z,101984.01
2019-03-26T23:14:43.943Z,101983.33
2019-03-26T23:17:03.422Z,101987.95
2019-03-26T23:19:34.222Z,101993.78
2019-03-26T23:22:05.145Z,101998.98
2019-03-26T23:24:36.071Z,101989.99
2019-03-26T23:27:07.282Z,101995.86
2019-03-26T23:29:38.462Z,101993.84
2019-03-26T23:32:09.806Z,101990.20
2019-03-26T23:34:40.552Z,101996.36
2019-03-26T23:37:11.334Z,101993.62
2019-03-26T23:39:42.457Z,101993.33
2019-03-26T23:42:13.367Z,101997.07
2019-03-26T23:44:57.442Z,101990.33
2019-03-26T23:47:16.741Z,101990.24
2019-03-26T23:49:48.026Z,101989.36
2019-03-26T23:52:19.135Z,101977.08
2019-03-26T23:54:49.965Z,101995.05
2019-03-26T23:57:21.079Z,101998.05
2019-03-26T23:59:52.031Z,101999.39
